createdAt,value
2024-02-18T00:00:21.958Z,48.20
2024-02-18T00:02:50.136Z,48.60
2024-02-18T00:05:18.325Z,48.87
2024-02-18T00:07:46.457Z,48.67
2024-02-18T00:10:15.828Z,48.37
2024-02-18T00:12:43.988Z,48.87
2024-02-18T00:15:12.378Z,48.03
2024-02-18T00:17:41.280Z,48.47
2024-02-18T00:20:12.357Z,48.20
2024-02-18T00:22:40.501Z,48.47
2024-02-18T00:25:09.092Z,48.57
2024-02-18T00:27:39.604Z,48.27
2024-02-18T00:30:08.742Z,47.90
2024-02-18T00:32:37.032Z,48.10
2024-02-18T00:35:05.637Z,47.87
2024-02-18T00:37:34.040Z,48.20
2024-02-18T00:40:02.179Z,48.40
2024-02-18T00:42:30.232Z,48.17
2024-02-18T00:44:59.739Z,48.43
2024-02-18T00:47:27.892Z,48.27
2024-02-18T00:49:56.145Z,48.13
2024-02-18T00:52:24.406Z,48.30
2024-02-18T00:54:52.502Z,48.30
2024-02-18T00:57:20.743Z,48.37
2024-02-18T00:59:49.543Z,48.20
2024-02-18T01:02:19.577Z,48.40
2024-02-18T01:04:48.484Z,48.23
2024-02-18T01:07:16.961Z,48.30
2024-02-18T01:09:47.178Z,47.97
2024-02-18T01:12:15.768Z,48.23
2024-02-18T01:14:45.359Z,48.07
2024-02-18T01:17:13.737Z,47.90
2024-02-18T01:19:44.661Z,48.27
2024-02-18T01:22:13.073Z,47.60
2024-02-18T01:24:41.667Z,47.67
2024-02-18T01:27:10.020Z,47.90
2024-02-18T01:29:39.895Z,47.30
2024-02-18T01:32:09.756Z,47.53
2024-02-18T01:34:38.447Z,47.80
2024-02-18T01:37:08.091Z,48.00
2024-02-18T01:39:36.747Z,47.23
2024-02-18T01:42:05.255Z,47.87
2024-02-18T01:44:34.858Z,47.63
2024-02-18T01:47:02.817Z,47.70
2024-02-18T01:49:33.811Z,47.67
2024-02-18T01:52:02.597Z,47.33
2024-02-18T01:54:34.802Z,47.33
2024-02-18T01:57:07.746Z,47.67
2024-02-18T01:59:36.877Z,47.50
2024-02-18T02:02:05.714Z,47.03
2024-02-18T02:04:34.978Z,47.23
2024-02-18T02:07:04.199Z,47.47
2024-02-18T02:09:33.874Z,47.37
2024-02-18T02:12:02.277Z,47.13
2024-02-18T02:14:30.502Z,46.93
2024-02-18T02:16:59.060Z,46.80
2024-02-18T02:19:27.966Z,46.13
2024-02-18T02:21:56.437Z,46.87
2024-02-18T02:24:24.916Z,46.13
2024-02-18T02:26:58.248Z,45.73
2024-02-18T02:29:27.929Z,45.93
2024-02-18T02:31:58.683Z,45.63
2024-02-18T02:34:27.494Z,45.93
2024-02-18T02:36:55.933Z,45.83
2024-02-18T02:39:24.263Z,45.83
2024-02-18T02:41:52.334Z,45.63
2024-02-18T02:44:20.558Z,46.13
2024-02-18T02:46:50.417Z,45.53
2024-02-18T02:49:18.757Z,45.63
2024-02-18T02:51:47.230Z,45.10
2024-02-18T02:54:15.782Z,45.10
2024-02-18T02:56:44.330Z,45.83
2024-02-18T02:59:12.593Z,45.63
2024-02-18T03:01:40.739Z,45.83
2024-02-18T03:04:13.486Z,45.80
2024-02-18T03:06:41.892Z,45.33
2024-02-18T03:09:10.046Z,45.40
2024-02-18T03:11:38.540Z,45.40
2024-02-18T03:14:06.594Z,45.37
2024-02-18T03:16:34.832Z,45.73
2024-02-18T03:19:03.210Z,45.50
2024-02-18T03:21:32.991Z,44.87
2024-02-18T03:24:02.471Z,45.07
2024-02-18T03:26:32.499Z,45.00
2024-02-18T03:29:00.765Z,45.17
2024-02-18T03:31:28.843Z,47.60
2024-02-18T03:33:57.715Z,47.50
2024-02-18T03:36:26.426Z,47.73
2024-02-18T03:38:55.960Z,47.60
2024-02-18T03:41:24.615Z,46.97
2024-02-18T03:43:52.742Z,45.23
2024-02-18T03:46:20.810Z,44.40
2024-02-18T03:48:48.995Z,44.70
2024-02-18T03:51:17.670Z,44.43
2024-02-18T03:53:45.670Z,44.17
2024-02-18T03:56:15.179Z,43.87
2024-02-18T03:58:43.301Z,43.77
2024-02-18T04:01:12.307Z,44.10
2024-02-18T04:03:41.072Z,43.53
2024-02-18T04:06:10.046Z,43.47
2024-02-18T04:08:38.356Z,42.57
2024-02-18T04:11:06.641Z,43.37
2024-02-18T04:13:36.176Z,43.07
2024-02-18T04:16:05.349Z,43.43
2024-02-18T04:18:33.834Z,43.03
2024-02-18T04:21:02.156Z,43.00
2024-02-18T04:23:30.112Z,43.57
2024-02-18T04:25:58.174Z,43.77
2024-02-18T04:28:26.431Z,43.47
2024-02-18T04:30:56.225Z,44.03
2024-02-18T04:33:24.473Z,43.33
2024-02-18T04:35:52.509Z,44.10
2024-02-18T04:38:21.325Z,44.67
2024-02-18T04:40:49.286Z,47.13
2024-02-18T04:43:17.365Z,45.27
2024-02-18T04:45:47.209Z,45.70
2024-02-18T04:48:17.620Z,47.17
2024-02-18T04:50:45.884Z,46.77
2024-02-18T04:53:14.281Z,46.77
2024-02-18T04:55:42.568Z,47.43
2024-02-18T04:58:13.752Z,46.57
2024-02-18T05:00:42.159Z,46.63
2024-02-18T05:03:10.555Z,46.83
2024-02-18T05:05:40.359Z,46.77
2024-02-18T05:08:08.459Z,46.57
2024-02-18T05:10:38.380Z,46.23
2024-02-18T05:13:06.688Z,46.40
2024-02-18T05:15:35.017Z,46.10
2024-02-18T05:18:03.055Z,45.93
2024-02-18T05:20:31.014Z,45.93
2024-02-18T05:23:00.696Z,46.27
2024-02-18T05:25:28.674Z,46.70
2024-02-18T05:27:56.666Z,46.63
2024-02-18T05:30:24.942Z,46.90
2024-02-18T05:32:53.901Z,46.90
2024-02-18T05:35:21.963Z,46.53
2024-02-18T05:37:50.077Z,46.57
2024-02-18T05:40:19.561Z,47.10
2024-02-18T05:42:47.886Z,46.73
2024-02-18T05:45:21.590Z,46.50
2024-02-18T05:47:50.145Z,46.57
2024-02-18T05:50:18.159Z,46.43
2024-02-18T05:52:46.499Z,46.23
2024-02-18T05:55:14.815Z,46.47
2024-02-18T05:57:44.607Z,46.13
2024-02-18T06:00:14.506Z,46.80
2024-02-18T06:02:43.000Z,45.77
2024-02-18T06:05:13.192Z,45.97
2024-02-18T06:07:41.761Z,45.83
2024-02-18T06:10:10.862Z,45.77
2024-02-18T06:12:39.716Z,46.23
2024-02-18T06:15:10.543Z,46.07
2024-02-18T06:17:39.242Z,46.37
2024-02-18T06:20:08.792Z,46.53
2024-02-18T06:22:36.951Z,46.87
2024-02-18T06:25:05.807Z,46.43
2024-02-18T06:27:34.167Z,46.43
2024-02-18T06:30:02.420Z,46.33
2024-02-18T06:32:32.358Z,45.70
2024-02-18T06:35:00.674Z,46.23
2024-02-18T06:37:28.958Z,46.30
2024-02-18T06:39:57.008Z,46.17
2024-02-18T06:42:25.304Z,46.23
2024-02-18T06:44:53.674Z,46.17
2024-02-18T06:47:21.730Z,46.13
2024-02-18T06:49:51.601Z,46.03
2024-02-18T06:52:20.365Z,45.80
2024-02-18T06:54:48.632Z,45.87
2024-02-18T06:57:16.770Z,45.87
2024-02-18T06:59:46.622Z,45.63
2024-02-18T07:02:15.063Z,45.23
2024-02-18T07:04:43.342Z,46.17
2024-02-18T07:07:13.233Z,45.97
2024-02-18T07:09:43.869Z,45.70
2024-02-18T07:12:12.073Z,45.23
2024-02-18T07:14:40.204Z,45.73
2024-02-18T07:17:08.316Z,45.30
2024-02-18T07:19:36.738Z,46.30
2024-02-18T07:22:05.689Z,46.17
2024-02-18T07:24:35.527Z,45.40
2024-02-18T07:27:04.278Z,46.17
2024-02-18T07:29:32.349Z,46.00
2024-02-18T07:32:00.545Z,46.10
2024-02-18T07:34:28.876Z,46.33
2024-02-18T07:36:57.224Z,46.33
2024-02-18T07:39:25.910Z,46.33
2024-02-18T07:41:56.272Z,46.03
2024-02-18T07:44:24.236Z,46.03
2024-02-18T07:46:55.300Z,45.10
2024-02-18T07:49:24.415Z,45.07
2024-02-18T07:51:52.851Z,44.70
2024-02-18T07:54:21.042Z,45.83
2024-02-18T07:56:50.292Z,45.87
2024-02-18T07:59:22.826Z,45.60
2024-02-18T08:01:52.195Z,45.53
2024-02-18T08:04:20.303Z,46.07
2024-02-18T08:06:49.749Z,46.03
2024-02-18T08:09:18.077Z,45.83
2024-02-18T08:11:46.884Z,45.57
2024-02-18T08:14:15.243Z,45.97
2024-02-18T08:16:44.930Z,45.13
2024-02-18T08:19:13.071Z,45.77
2024-02-18T08:21:41.367Z,45.73
2024-02-18T08:24:11.491Z,45.80
2024-02-18T08:26:39.489Z,45.40
2024-02-18T08:29:08.600Z,45.90
2024-02-18T08:31:36.974Z,46.10
2024-02-18T08:34:06.687Z,45.67
2024-02-18T08:36:34.736Z,45.43
2024-02-18T08:39:03.129Z,45.53
2024-02-18T08:41:31.724Z,44.77
2024-02-18T08:44:02.153Z,45.17
2024-02-18T08:46:31.503Z,44.60
2024-02-18T08:49:00.951Z,45.43
2024-02-18T08:51:30.392Z,47.00
2024-02-18T08:53:58.505Z,46.80
2024-02-18T08:56:26.446Z,46.40
2024-02-18T08:58:54.989Z,46.03
2024-02-18T09:01:23.093Z,47.20
2024-02-18T09:03:51.506Z,47.33
2024-02-18T09:06:19.879Z,47.57
2024-02-18T09:08:49.481Z,46.73
2024-02-18T09:11:17.682Z,46.70
2024-02-18T09:13:45.786Z,46.37
2024-02-18T09:16:14.064Z,45.13
2024-02-18T09:18:42.348Z,47.00
2024-02-18T09:21:10.511Z,46.73
2024-02-18T09:23:38.447Z,45.43
2024-02-18T09:26:10.523Z,45.97
2024-02-18T09:28:39.002Z,45.40
2024-02-18T09:31:09.679Z,46.03
2024-02-18T09:33:37.923Z,45.93
2024-02-18T09:36:06.664Z,45.63
2024-02-18T09:38:34.618Z,46.30
2024-02-18T09:41:04.763Z,45.57
2024-02-18T09:43:40.030Z,45.60
2024-02-18T09:46:10.040Z,47.03
2024-02-18T09:48:39.426Z,47.10
2024-02-18T09:51:08.569Z,47.13
2024-02-18T09:53:36.907Z,45.70
2024-02-18T09:56:06.482Z,46.23
2024-02-18T09:58:36.154Z,46.20
2024-02-18T10:01:04.684Z,45.67
2024-02-18T10:03:33.064Z,45.57
2024-02-18T10:06:01.283Z,44.73
2024-02-18T10:08:29.444Z,44.47
2024-02-18T10:10:57.799Z,44.57
2024-02-18T10:13:26.376Z,44.33
2024-02-18T10:15:56.000Z,44.17
2024-02-18T10:18:24.559Z,44.60
2024-02-18T10:20:55.442Z,44.90
2024-02-18T10:23:23.718Z,45.20
2024-02-18T10:25:52.025Z,44.63
2024-02-18T10:28:21.321Z,44.73
2024-02-18T10:30:50.673Z,44.20
2024-02-18T10:33:22.929Z,44.50
2024-02-18T10:35:54.583Z,44.20
2024-02-18T10:38:25.879Z,44.40
2024-02-18T10:41:03.221Z,44.60
2024-02-18T10:43:32.708Z,44.43
2024-02-18T10:46:04.643Z,44.57
2024-02-18T10:48:38.651Z,44.90
2024-02-18T10:51:08.430Z,45.10
2024-02-18T10:53:42.053Z,45.17
2024-02-18T10:56:14.558Z,44.47
2024-02-18T10:58:58.991Z,44.97
2024-02-18T11:01:30.009Z,44.23
2024-02-18T11:04:07.944Z,44.47
2024-02-18T11:06:38.349Z,44.33
2024-02-18T11:09:09.513Z,44.07
2024-02-18T11:11:39.276Z,43.73
2024-02-18T11:14:10.135Z,44.47
2024-02-18T11:16:40.144Z,44.03
2024-02-18T11:19:11.422Z,43.87
2024-02-18T11:21:40.306Z,43.73
2024-02-18T11:24:09.114Z,44.73
2024-02-18T11:26:37.637Z,44.13
2024-02-18T11:29:06.084Z,44.17
2024-02-18T11:31:34.878Z,43.60
2024-02-18T11:34:07.023Z,43.40
2024-02-18T11:36:36.654Z,43.70
2024-02-18T11:39:08.044Z,44.37
2024-02-18T11:41:38.393Z,44.20
2024-02-18T11:44:10.508Z,43.50
2024-02-18T11:46:41.198Z,43.30
2024-02-18T11:49:10.217Z,43.20
2024-02-18T11:51:39.842Z,41.90
2024-02-18T11:54:08.229Z,41.90
2024-02-18T11:56:36.254Z,41.80
2024-02-18T11:59:04.913Z,41.77
2024-02-18T12:01:37.750Z,41.87
2024-02-18T12:04:06.820Z,40.57
2024-02-18T12:06:36.886Z,40.20
2024-02-18T12:09:15.999Z,39.67
2024-02-18T12:11:47.804Z,39.27
2024-02-18T12:14:18.037Z,38.77
2024-02-18T12:16:47.119Z,38.37
2024-02-18T12:19:15.545Z,39.67
2024-02-18T12:21:43.990Z,40.87
2024-02-18T12:24:13.491Z,41.10
2024-02-18T12:26:41.419Z,40.70
2024-02-18T12:29:09.453Z,41.27
2024-02-18T12:31:39.384Z,41.40
2024-02-18T12:34:07.657Z,41.47
2024-02-18T12:36:36.506Z,41.23
2024-02-18T12:39:08.750Z,39.47
2024-02-18T12:41:38.494Z,40.67
2024-02-18T12:46:39.161Z,40.97
2024-02-18T12:49:07.938Z,40.63
2024-02-18T12:51:37.809Z,39.30
2024-02-18T12:54:05.810Z,39.13
2024-02-18T12:56:34.679Z,38.63
2024-02-18T12:59:06.866Z,38.40
2024-02-18T13:01:35.440Z,38.03
2024-02-18T13:04:10.501Z,37.90
2024-02-18T13:06:40.858Z,37.63
2024-02-18T13:09:09.564Z,36.97
2024-02-18T13:11:38.154Z,37.57
2024-02-18T13:14:07.441Z,37.07
2024-02-18T13:16:35.985Z,36.40
2024-02-18T13:19:04.828Z,36.90
2024-02-18T13:21:33.318Z,36.73
2024-02-18T13:24:01.357Z,36.77
2024-02-18T13:26:30.354Z,36.83
2024-02-18T13:28:58.475Z,36.50
2024-02-18T13:31:29.685Z,36.17
2024-02-18T13:33:57.813Z,36.67
2024-02-18T13:36:25.895Z,36.37
2024-02-18T13:38:57.385Z,36.20
2024-02-18T13:41:32.814Z,36.47
2024-02-18T13:44:01.048Z,36.73
2024-02-18T13:46:31.367Z,37.03
2024-02-18T13:48:59.787Z,37.17
2024-02-18T13:51:28.127Z,37.43
2024-02-18T13:53:56.066Z,36.80
2024-02-18T13:56:24.267Z,37.10
2024-02-18T13:58:55.234Z,37.07
2024-02-18T14:01:23.214Z,37.20
2024-02-18T14:03:52.670Z,36.60
2024-02-18T14:06:20.883Z,36.90
2024-02-18T14:08:50.307Z,36.40
2024-02-18T14:11:19.215Z,37.00
2024-02-18T14:13:47.409Z,36.80
2024-02-18T14:16:20.073Z,36.90
2024-02-18T14:18:48.640Z,36.70
2024-02-18T14:21:18.071Z,36.50
2024-02-18T14:23:46.737Z,36.70
2024-02-18T14:26:16.075Z,36.50
2024-02-18T14:28:46.739Z,36.03
2024-02-18T14:31:14.705Z,36.80
2024-02-18T14:33:42.946Z,35.83
2024-02-18T14:36:13.269Z,36.40
2024-02-18T14:38:55.265Z,36.27
2024-02-18T14:41:25.879Z,36.33
2024-02-18T14:43:54.242Z,36.10
2024-02-18T14:46:22.376Z,36.30
2024-02-18T14:48:54.554Z,36.43
2024-02-18T14:51:22.659Z,36.17
2024-02-18T14:53:54.572Z,35.87
2024-02-18T14:56:22.613Z,35.20
2024-02-18T14:58:50.766Z,35.90
2024-02-18T15:01:20.034Z,36.23
2024-02-18T15:03:48.610Z,35.90
2024-02-18T15:06:17.443Z,36.30
2024-02-18T15:08:45.814Z,34.67
2024-02-18T15:11:19.454Z,35.03
2024-02-18T15:13:50.021Z,35.27
2024-02-18T15:16:21.168Z,34.33
2024-02-18T15:18:51.812Z,34.20
2024-02-18T15:21:21.039Z,34.47
2024-02-18T15:23:49.311Z,33.87
2024-02-18T15:26:19.984Z,34.40
2024-02-18T15:28:48.034Z,34.07
2024-02-18T15:31:16.098Z,34.33
2024-02-18T15:33:44.496Z,34.43
2024-02-18T15:36:14.007Z,34.43
2024-02-18T15:38:43.081Z,34.60
2024-02-18T15:41:22.951Z,34.93
2024-02-18T15:43:54.284Z,34.80
2024-02-18T15:46:30.484Z,34.93
2024-02-18T15:48:58.544Z,35.10
2024-02-18T15:51:29.739Z,35.10
2024-02-18T15:53:58.569Z,35.00
2024-02-18T15:56:28.204Z,34.77
2024-02-18T15:58:58.838Z,35.17
2024-02-18T16:01:27.622Z,34.27
2024-02-18T16:03:57.588Z,35.23
2024-02-18T16:06:35.550Z,35.03
2024-02-18T16:09:04.137Z,34.87
2024-02-18T16:11:34.779Z,35.53
2024-02-18T16:14:02.946Z,35.13
2024-02-18T16:16:32.027Z,34.60
2024-02-18T16:19:00.346Z,34.80
2024-02-18T16:21:28.742Z,35.07
2024-02-18T16:24:01.048Z,34.23
2024-02-18T16:26:30.270Z,34.53
2024-02-18T16:28:59.870Z,34.87
2024-02-18T16:31:29.457Z,34.17
2024-02-18T16:33:57.613Z,34.33
2024-02-18T16:36:27.465Z,34.00
2024-02-18T16:38:59.180Z,33.93
2024-02-18T16:41:27.832Z,33.43
2024-02-18T16:43:55.877Z,33.73
2024-02-18T16:46:28.343Z,33.43
2024-02-18T16:48:56.326Z,33.33
2024-02-18T16:51:27.110Z,33.63
2024-02-18T16:53:57.090Z,33.53
2024-02-18T16:56:26.661Z,34.13
2024-02-18T16:58:55.100Z,33.77
2024-02-18T17:01:24.692Z,33.87
2024-02-18T17:03:53.501Z,34.47
2024-02-18T17:06:22.107Z,33.83
2024-02-18T17:08:50.405Z,34.20
2024-02-18T17:11:21.046Z,34.03
2024-02-18T17:13:53.572Z,33.47
2024-02-18T17:16:21.622Z,33.70
2024-02-18T17:18:52.175Z,33.70
2024-02-18T17:21:21.170Z,33.43
2024-02-18T17:23:51.968Z,33.40
2024-02-18T17:26:19.882Z,34.07
2024-02-18T17:28:51.143Z,32.40
2024-02-18T17:31:22.564Z,33.27
2024-02-18T17:33:56.474Z,33.10
2024-02-18T17:36:26.875Z,33.00
2024-02-18T17:38:55.145Z,33.23
2024-02-18T17:41:23.223Z,33.10
2024-02-18T17:43:51.751Z,32.27
2024-02-18T17:46:21.537Z,33.37
2024-02-18T17:48:49.557Z,33.43
2024-02-18T17:51:19.284Z,32.57
2024-02-18T17:53:47.865Z,33.60
2024-02-18T17:56:16.061Z,33.23
2024-02-18T17:58:44.397Z,33.23
2024-02-18T18:01:12.962Z,32.53
2024-02-18T18:03:42.908Z,32.63
2024-02-18T18:06:12.671Z,33.63
2024-02-18T18:08:44.074Z,33.03
2024-02-18T18:11:13.109Z,33.40
2024-02-18T18:13:43.468Z,32.83
2024-02-18T18:16:15.405Z,32.33
2024-02-18T18:18:44.509Z,33.23
2024-02-18T18:21:12.877Z,33.13
2024-02-18T18:23:42.568Z,32.97
2024-02-18T18:26:11.940Z,32.77
2024-02-18T18:28:40.155Z,32.53
2024-02-18T18:31:08.152Z,32.13
2024-02-18T18:33:37.284Z,32.40
2024-02-18T18:36:08.896Z,33.03
2024-02-18T18:38:37.503Z,32.90
2024-02-18T18:41:08.319Z,33.23
2024-02-18T18:43:36.579Z,33.50
2024-02-18T18:46:04.810Z,33.40
2024-02-18T18:48:33.310Z,33.50
2024-02-18T18:51:01.707Z,33.57
2024-02-18T18:53:30.629Z,32.53
2024-02-18T18:56:00.318Z,32.33
2024-02-18T18:58:29.852Z,32.77
2024-02-18T19:00:59.089Z,32.93
2024-02-18T19:03:29.936Z,33.33
2024-02-18T19:05:58.037Z,32.77
2024-02-18T19:08:26.400Z,32.80
2024-02-18T19:10:56.810Z,33.73
2024-02-18T19:15:59.811Z,33.23
2024-02-18T19:18:27.902Z,33.53
2024-02-18T19:20:56.570Z,32.67
2024-02-18T19:23:27.623Z,32.67
2024-02-18T19:25:55.945Z,33.80
2024-02-18T19:28:26.173Z,33.23
2024-02-18T19:30:55.971Z,33.03
2024-02-18T19:33:27.783Z,33.40
2024-02-18T19:35:57.841Z,32.93
2024-02-18T19:38:27.485Z,33.03
2024-02-18T19:40:56.207Z,32.60
2024-02-18T19:43:24.902Z,32.77
2024-02-18T19:45:55.146Z,32.83
2024-02-18T19:48:25.575Z,32.53
2024-02-18T19:50:56.196Z,32.77
2024-02-18T19:53:25.459Z,32.83
2024-02-18T19:55:53.787Z,32.87
2024-02-18T19:58:21.808Z,33.07
2024-02-18T20:00:50.516Z,33.17
2024-02-18T20:03:18.573Z,33.17
2024-02-18T20:05:48.769Z,33.07
2024-02-18T20:08:18.646Z,33.57
2024-02-18T20:10:48.511Z,33.27
2024-02-18T20:13:17.954Z,32.60
2024-02-18T20:15:49.313Z,32.97
2024-02-18T20:18:19.484Z,32.97
2024-02-18T20:20:50.329Z,33.30
2024-02-18T20:23:18.858Z,33.07
2024-02-18T20:25:46.911Z,33.10
2024-02-18T20:28:15.190Z,33.17
2024-02-18T20:30:44.709Z,33.43
2024-02-18T20:33:16.708Z,32.77
2024-02-18T20:35:44.802Z,32.77
2024-02-18T20:38:15.098Z,32.77
2024-02-18T20:40:45.063Z,32.80
2024-02-18T20:43:14.358Z,33.27
2024-02-18T20:45:43.116Z,32.83
2024-02-18T20:48:13.463Z,32.77
2024-02-18T20:50:41.615Z,33.03
2024-02-18T20:53:11.410Z,32.73
2024-02-18T20:58:36.211Z,32.23
2024-02-18T21:01:06.175Z,32.83
2024-02-18T21:03:34.576Z,32.63
2024-02-18T21:06:02.639Z,32.60
2024-02-18T21:08:31.268Z,32.13
2024-02-18T21:11:00.863Z,32.80
2024-02-18T21:13:28.972Z,32.03
2024-02-18T21:15:57.297Z,32.33
2024-02-18T21:18:25.853Z,32.30
2024-02-18T21:20:56.760Z,32.13
2024-02-18T21:23:24.897Z,32.40
2024-02-18T21:25:53.799Z,32.47
2024-02-18T21:28:24.035Z,32.80
2024-02-18T21:30:52.117Z,32.60
2024-02-18T21:33:22.157Z,32.20
2024-02-18T21:35:50.588Z,32.77
2024-02-18T21:38:18.888Z,32.17
2024-02-18T21:40:47.349Z,32.50
2024-02-18T21:43:15.648Z,32.77
2024-02-18T21:45:46.448Z,32.57
2024-02-18T21:48:14.839Z,32.10
2024-02-18T21:50:45.950Z,32.80
2024-02-18T21:53:14.952Z,32.57
2024-02-18T21:55:43.359Z,32.43
2024-02-18T21:58:12.110Z,32.33
2024-02-18T22:00:40.451Z,32.17
2024-02-18T22:03:11.187Z,32.27
2024-02-18T22:05:39.474Z,32.23
2024-02-18T22:08:08.400Z,32.17
2024-02-18T22:10:37.243Z,32.80
2024-02-18T22:13:05.858Z,32.10
2024-02-18T22:15:34.121Z,32.37
2024-02-18T22:18:02.524Z,32.10
2024-02-18T22:20:32.789Z,31.90
2024-02-18T22:23:01.434Z,32.17
2024-02-18T22:25:29.877Z,32.27
2024-02-18T22:27:58.618Z,31.77
2024-02-18T22:30:27.368Z,32.00
2024-02-18T22:32:55.630Z,32.40
2024-02-18T22:35:24.028Z,32.40
2024-02-18T22:37:53.857Z,32.50
2024-02-18T22:40:22.660Z,31.57
2024-02-18T22:42:51.532Z,32.07
2024-02-18T22:45:20.291Z,32.63
2024-02-18T22:47:48.597Z,32.17
2024-02-18T22:50:16.847Z,31.70
2024-02-18T22:52:45.006Z,32.07
2024-02-18T22:55:14.574Z,31.70
2024-02-18T22:57:43.146Z,32.20
2024-02-18T23:00:18.085Z,31.73
2024-02-18T23:02:46.925Z,31.63
2024-02-18T23:05:18.684Z,32.40
2024-02-18T23:07:48.303Z,32.13
2024-02-18T23:10:20.134Z,32.40
2024-02-18T23:12:48.847Z,32.47
2024-02-18T23:15:18.516Z,32.63
2024-02-18T23:17:47.512Z,32.13
2024-02-18T23:20:15.636Z,32.70
2024-02-18T23:22:43.695Z,32.03
2024-02-18T23:25:13.458Z,32.40
2024-02-18T23:27:44.152Z,32.20
2024-02-18T23:30:12.875Z,32.03
2024-02-18T23:32:41.702Z,32.60
2024-02-18T23:35:11.014Z,32.40
2024-02-18T23:37:44.416Z,32.50
2024-02-18T23:40:15.354Z,32.03
2024-02-18T23:42:45.710Z,32.87
2024-02-18T23:45:16.074Z,32.80
2024-02-18T23:47:44.326Z,32.60
2024-02-18T23:50:12.597Z,32.57
2024-02-18T23:52:41.419Z,32.33
2024-02-18T23:55:11.745Z,32.70
2024-02-18T23:57:39.953Z,32.47
